createdAt,value
2023-03-24T00:01:53.034Z,74.84
2023-03-24T00:04:42.812Z,74.97
2023-03-24T00:07:35.367Z,75.01
2023-03-24T00:10:24.268Z,74.96
2023-03-24T00:13:13.103Z,74.80
2023-03-24T00:16:02.444Z,74.84
2023-03-24T00:18:53.858Z,74.83
2023-03-24T00:21:44.318Z,75.00
2023-03-24T00:24:33.414Z,75.09
2023-03-24T00:27:22.956Z,75.08
2023-03-24T00:30:13.141Z,75.34
2023-03-24T00:33:02.357Z,75.31
2023-03-24T00:35:51.683Z,75.49
2023-03-24T00:38:42.102Z,75.73
2023-03-24T00:41:31.785Z,75.92
2023-03-24T00:44:20.577Z,75.84
2023-03-24T00:47:11.708Z,75.98
2023-03-24T00:50:02.438Z,76.01
2023-03-24T00:52:53.425Z,76.22
2023-03-24T00:55:46.369Z,76.18
2023-03-24T00:58:36.438Z,76.36
2023-03-24T01:06:19.696Z,76.45
2023-03-24T01:09:08.648Z,76.61
2023-03-24T01:11:57.513Z,76.43
2023-03-24T01:14:46.466Z,76.66
2023-03-24T01:17:35.500Z,76.78
2023-03-24T01:20:25.196Z,76.81
2023-03-24T01:23:15.935Z,76.62
2023-03-24T01:26:07.777Z,76.65
2023-03-24T01:28:56.452Z,76.76
2023-03-24T01:31:45.520Z,77.00
2023-03-24T01:34:35.881Z,77.01
2023-03-24T01:37:24.955Z,77.12
2023-03-24T01:40:20.716Z,77.33
2023-03-24T01:43:31.090Z,77.16
2023-03-24T01:46:21.979Z,77.38
2023-03-24T01:49:12.107Z,77.60
2023-03-24T01:52:03.238Z,77.90
2023-03-24T01:54:57.524Z,77.90
2023-03-24T01:57:52.053Z,78.37
2023-03-24T02:00:42.243Z,78.32
2023-03-24T02:03:53.303Z,78.43
2023-03-24T02:06:44.103Z,78.24
2023-03-24T02:09:33.996Z,78.24
2023-03-24T02:12:22.794Z,78.34
2023-03-24T02:15:14.961Z,78.78
2023-03-24T02:18:19.379Z,78.77
2023-03-24T02:21:23.879Z,78.87
2023-03-24T02:24:46.448Z,78.85
2023-03-24T02:28:04.052Z,79.09
2023-03-24T02:31:31.069Z,79.29
2023-03-24T02:34:44.734Z,79.20
2023-03-24T02:38:07.452Z,79.20
2023-03-24T02:41:03.619Z,79.40
2023-03-24T02:44:16.705Z,79.29
2023-03-24T02:47:31.139Z,79.15
2023-03-24T02:50:36.291Z,79.28
2023-03-24T02:53:36.741Z,79.17
2023-03-24T02:57:01.432Z,79.28
2023-03-24T03:00:02.273Z,78.99
2023-03-24T03:03:18.742Z,79.11
2023-03-24T03:06:08.793Z,79.22
2023-03-24T03:09:01.375Z,79.48
2023-03-24T03:11:55.051Z,79.74
2023-03-24T03:14:54.471Z,80.00
2023-03-24T03:17:49.957Z,80.08
2023-03-24T03:20:50.655Z,80.26
2023-03-24T03:23:51.293Z,80.53
2023-03-24T03:26:41.824Z,80.79
2023-03-24T03:29:37.555Z,81.08
2023-03-24T03:32:34.692Z,81.18
2023-03-24T03:35:33.661Z,81.03
2023-03-24T03:38:28.847Z,80.97
2023-03-24T03:41:18.715Z,81.13
2023-03-24T03:44:08.408Z,81.19
2023-03-24T03:46:57.540Z,81.38
2023-03-24T03:49:55.027Z,81.27
2023-03-24T03:52:44.976Z,81.35
2023-03-24T03:55:35.507Z,81.68
2023-03-24T03:58:25.152Z,81.87
2023-03-24T04:01:20.202Z,81.91
2023-03-24T04:04:39.469Z,82.01
2023-03-24T04:08:18.893Z,81.97
2023-03-24T04:11:40.794Z,81.81
2023-03-24T04:14:31.980Z,81.90
2023-03-24T04:18:11.928Z,81.83
2023-03-24T04:21:28.421Z,81.72
2023-03-24T04:24:40.444Z,81.99
2023-03-24T04:27:40.152Z,81.97
2023-03-24T04:30:51.547Z,82.01
2023-03-24T04:33:50.302Z,81.83
2023-03-24T04:36:54.441Z,81.63
2023-03-24T04:40:12.964Z,81.51
2023-03-24T04:43:05.373Z,81.82
2023-03-24T04:45:57.903Z,81.73
2023-03-24T04:49:13.306Z,81.56
2023-03-24T04:52:02.978Z,82.16
2023-03-24T04:54:55.701Z,82.14
2023-03-24T04:57:44.276Z,82.30
2023-03-24T05:00:33.097Z,82.34
2023-03-24T05:03:21.665Z,82.41
2023-03-24T05:06:10.640Z,82.54
2023-03-24T05:08:59.909Z,82.73
2023-03-24T05:11:51.038Z,82.88
2023-03-24T05:14:39.946Z,83.20
2023-03-24T05:17:29.841Z,83.34
2023-03-24T05:20:19.167Z,83.50
2023-03-24T05:23:11.481Z,83.58
2023-03-24T05:26:01.258Z,83.89
2023-03-24T05:28:52.783Z,84.11
2023-03-24T05:31:41.582Z,84.13
2023-03-24T05:34:32.368Z,84.31
2023-03-24T05:37:28.860Z,84.48
2023-03-24T05:40:18.379Z,84.69
2023-03-24T05:43:19.437Z,84.92
2023-03-24T05:46:18.185Z,84.80
2023-03-24T05:49:07.179Z,84.95
2023-03-24T05:51:58.990Z,84.92
2023-03-24T05:54:49.467Z,85.03
2023-03-24T05:57:42.172Z,85.42
2023-03-24T06:00:48.818Z,85.50
2023-03-24T06:03:42.872Z,85.59
2023-03-24T06:06:35.098Z,85.69
2023-03-24T06:09:24.117Z,85.98
2023-03-24T06:12:13.709Z,85.96
2023-03-24T06:15:10.823Z,85.87
2023-03-24T06:18:01.046Z,85.96
2023-03-24T06:20:56.785Z,85.92
2023-03-24T06:23:56.424Z,86.05
2023-03-24T06:26:50.409Z,85.68
2023-03-24T06:29:39.264Z,85.61
2023-03-24T06:32:29.162Z,85.56
2023-03-24T06:35:18.071Z,85.50
2023-03-24T06:38:27.236Z,85.45
2023-03-24T06:41:16.010Z,85.70
2023-03-24T06:44:04.899Z,85.56
2023-03-24T06:46:54.378Z,85.52
2023-03-24T06:49:43.132Z,85.62
2023-03-24T06:52:31.769Z,85.56
2023-03-24T06:55:22.357Z,85.73
2023-03-24T06:58:13.284Z,85.60
2023-03-24T07:01:16.380Z,85.57
2023-03-24T07:04:17.898Z,85.58
2023-03-24T07:07:41.459Z,85.31
2023-03-24T07:10:48.275Z,85.30
2023-03-24T07:13:38.411Z,85.14
2023-03-24T07:16:26.951Z,85.03
2023-03-24T07:19:36.259Z,85.16
2023-03-24T07:23:03.520Z,85.11
2023-03-24T07:26:10.518Z,85.11
2023-03-24T07:29:08.330Z,84.85
2023-03-24T07:32:18.032Z,84.56
2023-03-24T07:35:11.862Z,84.53
2023-03-24T07:38:01.989Z,84.61
2023-03-24T07:40:50.761Z,84.73
2023-03-24T07:43:39.902Z,84.58
2023-03-24T07:46:45.851Z,84.40
2023-03-24T07:49:34.814Z,84.39
2023-03-24T07:52:26.033Z,83.56
2023-03-24T07:55:17.332Z,82.76
2023-03-24T07:58:28.913Z,81.76
2023-03-24T08:01:41.407Z,81.71
2023-03-24T08:04:32.622Z,80.87
2023-03-24T08:07:33.438Z,80.40
2023-03-24T08:10:24.962Z,80.24
2023-03-24T08:13:14.577Z,79.77
2023-03-24T08:16:04.148Z,79.84
2023-03-24T08:18:53.412Z,79.34
2023-03-24T08:21:42.129Z,78.57
2023-03-24T08:24:31.219Z,78.18
2023-03-24T08:27:19.873Z,77.68
2023-03-24T08:30:13.397Z,76.94
2023-03-24T08:33:03.345Z,77.14
2023-03-24T08:35:57.770Z,76.56
2023-03-24T08:38:48.390Z,76.10
2023-03-24T08:41:37.533Z,75.65
2023-03-24T08:44:26.229Z,75.46
2023-03-24T08:47:15.335Z,75.04
2023-03-24T08:50:05.746Z,75.18
2023-03-24T08:52:56.796Z,75.43
2023-03-24T08:55:45.659Z,75.58
2023-03-24T08:58:34.995Z,74.92
2023-03-24T09:01:24.559Z,73.45
2023-03-24T09:04:13.634Z,72.59
2023-03-24T09:07:03.157Z,72.35
2023-03-24T09:09:52.364Z,71.13
2023-03-24T09:12:42.579Z,71.34
2023-03-24T09:15:31.794Z,71.46
2023-03-24T09:18:21.973Z,71.39
2023-03-24T09:21:11.234Z,71.20
2023-03-24T09:24:00.036Z,71.38
2023-03-24T09:26:49.161Z,71.72
2023-03-24T09:29:38.550Z,71.51
2023-03-24T09:32:28.476Z,71.77
2023-03-24T09:35:17.563Z,72.04
2023-03-24T09:38:06.843Z,72.05
2023-03-24T09:41:00.861Z,72.09
2023-03-24T09:44:00.159Z,72.42
2023-03-24T09:47:13.674Z,72.56
2023-03-24T09:50:16.153Z,72.55
2023-03-24T09:53:27.369Z,72.78
2023-03-24T09:56:18.829Z,72.62
2023-03-24T09:59:12.497Z,72.58
2023-03-24T10:02:05.619Z,72.25
2023-03-24T10:04:54.834Z,72.13
2023-03-24T10:07:51.475Z,71.64
2023-03-24T10:10:56.767Z,70.51
2023-03-24T10:14:08.347Z,70.79
2023-03-24T10:16:59.880Z,70.60
2023-03-24T10:20:16.801Z,70.26
2023-03-24T10:23:08.435Z,70.36
2023-03-24T10:26:08.215Z,70.13
2023-03-24T10:29:30.186Z,69.94
2023-03-24T10:32:24.000Z,70.04
2023-03-24T10:35:21.328Z,69.25
2023-03-24T10:38:18.555Z,69.48
2023-03-24T10:41:07.652Z,68.84
2023-03-24T10:43:58.010Z,68.25
2023-03-24T10:46:49.756Z,68.00
2023-03-24T10:49:38.906Z,68.40
2023-03-24T10:52:28.502Z,67.71
2023-03-24T10:55:20.450Z,67.99
2023-03-24T10:58:30.387Z,68.01
2023-03-24T11:01:28.416Z,68.66
2023-03-24T11:04:20.227Z,68.39
2023-03-24T11:07:21.885Z,68.67
2023-03-24T11:10:10.358Z,68.49
2023-03-24T11:13:04.059Z,68.07
2023-03-24T11:16:14.976Z,68.49
2023-03-24T11:19:07.826Z,67.96
2023-03-24T11:22:03.247Z,68.16
2023-03-24T11:24:55.915Z,67.78
2023-03-24T11:27:45.504Z,67.62
2023-03-24T11:30:45.956Z,67.13
2023-03-24T11:33:42.501Z,67.15
2023-03-24T11:36:31.306Z,66.93
2023-03-24T11:39:25.162Z,66.04
2023-03-24T11:42:17.874Z,65.53
2023-03-24T11:45:21.891Z,65.73
2023-03-24T11:48:41.698Z,65.37
2023-03-24T11:51:36.259Z,65.40
2023-03-24T11:54:32.485Z,64.85
2023-03-24T11:57:39.276Z,64.96
2023-03-24T12:00:41.988Z,64.16
2023-03-24T12:03:53.203Z,64.02
2023-03-24T12:07:19.817Z,64.21
2023-03-24T12:10:44.644Z,64.48
2023-03-24T12:13:41.192Z,64.02
2023-03-24T12:17:13.898Z,63.32
2023-03-24T12:20:24.499Z,63.40
2023-03-24T12:23:18.098Z,63.37
2023-03-24T12:26:14.554Z,63.18
2023-03-24T12:29:40.838Z,63.46
2023-03-24T12:32:39.742Z,63.14
2023-03-24T12:36:01.459Z,63.06
2023-03-24T12:39:08.473Z,63.10
2023-03-24T12:42:05.781Z,62.51
2023-03-24T12:45:09.654Z,62.12
2023-03-24T12:48:07.279Z,62.94
2023-03-24T12:51:09.026Z,62.96
2023-03-24T12:54:12.857Z,63.25
2023-03-24T12:57:11.598Z,62.96
2023-03-24T13:00:12.125Z,62.95
2023-03-24T13:03:06.710Z,63.12
2023-03-24T13:06:07.291Z,62.81
2023-03-24T13:09:08.656Z,62.41
2023-03-24T13:12:12.252Z,62.56
2023-03-24T13:15:17.522Z,62.37
2023-03-24T13:18:12.011Z,62.35
2023-03-24T13:21:24.507Z,61.72
2023-03-24T13:24:15.395Z,60.97
2023-03-24T13:27:23.419Z,60.76
2023-03-24T13:30:28.250Z,60.37
2023-03-24T13:33:24.940Z,60.66
2023-03-24T13:36:45.781Z,60.74
2023-03-24T13:39:36.476Z,61.24
2023-03-24T13:42:31.523Z,60.85
2023-03-24T13:45:36.902Z,61.41
2023-03-24T13:48:46.812Z,61.12
2023-03-24T13:51:40.131Z,61.16
2023-03-24T13:54:29.482Z,60.79
2023-03-24T13:57:21.164Z,60.84
2023-03-24T14:00:20.380Z,60.81
2023-03-24T14:03:15.717Z,60.85
2023-03-24T14:06:09.076Z,61.17
2023-03-24T14:09:06.225Z,61.18
2023-03-24T14:12:03.823Z,61.07
2023-03-24T14:15:16.496Z,61.14
2023-03-24T14:18:23.837Z,61.05
2023-03-24T14:21:13.171Z,61.19
2023-03-24T14:24:18.148Z,61.42
2023-03-24T14:27:25.798Z,61.63
2023-03-24T14:30:26.343Z,61.73
2023-03-24T14:33:24.999Z,61.88
2023-03-24T14:36:20.845Z,61.97
2023-03-24T14:39:32.542Z,61.97
2023-03-24T14:42:36.228Z,61.95
2023-03-24T14:45:54.827Z,61.80
2023-03-24T14:48:58.621Z,62.05
2023-03-24T14:52:01.269Z,62.30
2023-03-24T14:55:00.703Z,62.22
2023-03-24T14:57:57.004Z,62.26
2023-03-24T15:01:06.575Z,62.16
2023-03-24T15:04:09.581Z,62.36
2023-03-24T15:07:06.387Z,62.48
2023-03-24T15:09:55.463Z,62.65
2023-03-24T15:12:49.389Z,63.01
2023-03-24T15:15:47.987Z,63.11
2023-03-24T15:19:03.664Z,63.26
2023-03-24T15:21:58.242Z,63.38
2023-03-24T15:24:50.073Z,63.54
2023-03-24T15:27:39.836Z,63.82
2023-03-24T15:30:29.062Z,63.97
2023-03-24T15:33:18.084Z,64.16
2023-03-24T15:36:22.838Z,64.11
2023-03-24T15:39:20.007Z,64.27
2023-03-24T15:42:15.970Z,64.37
2023-03-24T15:45:22.366Z,64.47
2023-03-24T15:48:19.459Z,64.80
2023-03-24T15:51:11.820Z,65.13
2023-03-24T15:54:00.453Z,65.67
2023-03-24T15:57:18.841Z,66.25
2023-03-24T16:00:19.130Z,67.02
2023-03-24T16:03:12.103Z,67.51
2023-03-24T16:06:00.920Z,68.17
2023-03-24T16:08:49.977Z,68.69
2023-03-24T16:11:38.637Z,69.49
2023-03-24T16:14:30.358Z,69.84
2023-03-24T16:17:18.954Z,69.93
2023-03-24T16:20:19.786Z,70.38
2023-03-24T16:23:11.009Z,70.71
2023-03-24T16:25:59.977Z,71.02
2023-03-24T16:28:49.662Z,71.31
2023-03-24T16:31:39.037Z,71.45
2023-03-24T16:34:27.682Z,71.67
2023-03-24T16:37:16.650Z,71.88
2023-03-24T16:40:20.144Z,72.02
2023-03-24T16:43:09.467Z,72.15
2023-03-24T16:45:58.074Z,72.47
2023-03-24T16:48:47.250Z,72.45
2023-03-24T16:51:35.987Z,72.53
2023-03-24T16:54:27.480Z,72.56
2023-03-24T16:57:16.448Z,72.51
2023-03-24T17:00:11.241Z,72.41
2023-03-24T17:03:00.255Z,72.38
2023-03-24T17:05:51.336Z,72.57
2023-03-24T17:08:40.594Z,72.33
2023-03-24T17:11:32.619Z,72.31
2023-03-24T17:14:21.896Z,72.55
2023-03-24T17:17:11.989Z,72.39
2023-03-24T17:20:05.463Z,72.36
2023-03-24T17:22:57.183Z,72.35
2023-03-24T17:25:46.126Z,72.60
2023-03-24T17:28:35.010Z,72.53
2023-03-24T17:31:23.658Z,72.63
2023-03-24T17:37:06.574Z,72.91
2023-03-24T17:39:57.346Z,72.94
2023-03-24T17:42:47.124Z,72.74
2023-03-24T17:45:36.430Z,72.87
2023-03-24T17:48:25.533Z,72.70
2023-03-24T17:51:14.568Z,72.89
2023-03-24T17:54:04.258Z,72.80
2023-03-24T17:56:53.285Z,72.82
2023-03-24T17:59:42.073Z,72.64
2023-03-24T18:02:31.142Z,72.62
2023-03-24T18:05:20.062Z,72.23
2023-03-24T18:08:09.047Z,72.23
2023-03-24T18:11:09.172Z,72.11
2023-03-24T18:13:57.931Z,72.17
2023-03-24T18:16:46.645Z,71.86
2023-03-24T18:19:35.760Z,71.78
2023-03-24T18:22:24.597Z,71.92
2023-03-24T18:25:13.895Z,71.85
2023-03-24T18:28:02.797Z,71.87
2023-03-24T18:30:51.975Z,71.90
2023-03-24T18:33:42.946Z,71.81
2023-03-24T18:36:32.264Z,71.86
2023-03-24T18:39:22.758Z,71.99
2023-03-24T18:42:11.695Z,71.87
2023-03-24T18:45:00.424Z,71.84
2023-03-24T18:47:49.203Z,71.62
2023-03-24T18:50:40.581Z,71.62
2023-03-24T18:53:29.438Z,71.75
2023-03-24T18:56:19.501Z,71.71
2023-03-24T18:59:09.612Z,71.73
2023-03-24T19:02:00.312Z,71.70
2023-03-24T19:04:49.809Z,71.70
2023-03-24T19:07:38.638Z,71.55
2023-03-24T19:10:28.008Z,71.77
2023-03-24T19:13:17.159Z,71.85
2023-03-24T19:16:06.388Z,71.82
2023-03-24T19:18:57.886Z,72.05
2023-03-24T19:21:46.669Z,72.10
2023-03-24T19:24:35.730Z,71.88
2023-03-24T19:27:24.642Z,72.08
2023-03-24T19:30:13.422Z,72.14
2023-03-24T19:33:02.344Z,72.05
2023-03-24T19:35:51.829Z,72.16
2023-03-24T19:38:44.396Z,72.04
2023-03-24T19:41:33.152Z,72.13
2023-03-24T19:44:22.722Z,72.21
2023-03-24T19:47:11.742Z,72.41
2023-03-24T19:50:00.761Z,72.45
2023-03-24T19:52:49.826Z,72.50
2023-03-24T19:55:38.648Z,72.59
2023-03-24T19:58:27.560Z,72.54
2023-03-24T20:01:16.618Z,72.74
2023-03-24T20:04:05.859Z,72.90
2023-03-24T20:06:54.641Z,72.98
2023-03-24T20:09:46.492Z,72.86
2023-03-24T20:12:35.510Z,73.20
2023-03-24T20:15:24.251Z,73.21
2023-03-24T20:18:13.109Z,73.09
2023-03-24T20:21:02.144Z,73.31
2023-03-24T20:23:55.080Z,73.91
2023-03-24T20:26:43.723Z,73.83
2023-03-24T20:29:32.927Z,73.84
2023-03-24T20:32:21.845Z,74.03
2023-03-24T20:35:11.077Z,74.27
2023-03-24T20:37:59.982Z,74.48
2023-03-24T20:41:05.529Z,74.44
2023-03-24T20:43:54.234Z,74.71
2023-03-24T20:46:44.240Z,74.67
2023-03-24T20:49:34.794Z,74.62
2023-03-24T20:52:24.476Z,74.60
2023-03-24T20:55:13.511Z,74.49
2023-03-24T20:58:02.371Z,73.89
2023-03-24T21:00:52.336Z,73.74
2023-03-24T21:03:41.452Z,73.63
2023-03-24T21:06:30.289Z,73.65
2023-03-24T21:09:22.373Z,73.41
2023-03-24T21:12:11.233Z,73.58
2023-03-24T21:15:00.170Z,73.35
2023-03-24T21:17:49.117Z,72.96
2023-03-24T21:20:39.019Z,73.00
2023-03-24T21:23:27.569Z,72.84
2023-03-24T21:26:18.105Z,72.88
2023-03-24T21:29:08.138Z,73.03
2023-03-24T21:31:56.886Z,73.00
2023-03-24T21:34:45.779Z,72.98
2023-03-24T21:37:34.735Z,73.01
2023-03-24T21:40:25.464Z,72.89
2023-03-24T21:43:15.083Z,72.78
2023-03-24T21:46:04.108Z,72.93
2023-03-24T21:48:55.886Z,73.12
2023-03-24T21:51:44.864Z,73.13
2023-03-24T21:54:33.838Z,72.96
2023-03-24T21:57:22.392Z,73.14
2023-03-24T22:00:18.097Z,73.24
2023-03-24T22:03:06.950Z,73.43
2023-03-24T22:05:57.841Z,73.52
2023-03-24T22:08:48.924Z,73.18
2023-03-24T22:11:42.840Z,73.21
2023-03-24T22:14:32.009Z,73.28
2023-03-24T22:17:21.087Z,73.29
2023-03-24T22:20:12.234Z,73.45
2023-03-24T22:23:03.858Z,73.42
2023-03-24T22:25:53.110Z,73.66
2023-03-24T22:28:43.144Z,73.72
2023-03-24T22:31:31.857Z,73.54
2023-03-24T22:34:21.000Z,73.64
2023-03-24T22:37:10.268Z,73.63
2023-03-24T22:39:59.288Z,73.96
2023-03-24T22:42:48.349Z,74.21
2023-03-24T22:45:37.312Z,74.12
2023-03-24T22:48:26.142Z,74.55
2023-03-24T22:51:19.471Z,74.56
2023-03-24T22:54:08.410Z,74.73
2023-03-24T22:56:57.250Z,74.98
2023-03-24T22:59:46.074Z,75.07
2023-03-24T23:02:35.171Z,75.29
2023-03-24T23:05:24.366Z,75.39
2023-03-24T23:08:15.465Z,75.41
2023-03-24T23:11:06.768Z,75.40
2023-03-24T23:14:05.358Z,75.64
2023-03-24T23:16:56.355Z,75.74
2023-03-24T23:19:45.173Z,75.93
2023-03-24T23:22:33.947Z,75.96
2023-03-24T23:25:23.416Z,76.23
2023-03-24T23:28:13.495Z,76.21
2023-03-24T23:31:02.313Z,76.42
2023-03-24T23:33:56.088Z,76.58
2023-03-24T23:36:50.474Z,76.56
2023-03-24T23:39:39.386Z,76.66
2023-03-24T23:42:29.630Z,76.45
2023-03-24T23:45:19.783Z,76.59
2023-03-24T23:48:08.764Z,76.45
2023-03-24T23:50:58.494Z,76.43
2023-03-24T23:53:47.381Z,76.56
2023-03-24T23:56:36.779Z,76.68
2023-03-24T23:59:26.238Z,76.72
